createdAt,value
2018-03-22T00:02:08.436Z,5.10
2018-03-22T00:04:36.372Z,5.10
2018-03-22T00:07:03.927Z,5.20
2018-03-22T00:09:31.416Z,5.20
2018-03-22T00:11:59.226Z,5.20
2018-03-22T00:14:27.652Z,5.10
2018-03-22T00:16:55.291Z,5.10
2018-03-22T00:19:23.162Z,5.10
2018-03-22T00:21:50.637Z,5.10
2018-03-22T00:24:18.276Z,5.10
2018-03-22T00:26:45.736Z,5.10
2018-03-22T00:29:13.259Z,5.10
2018-03-22T00:31:42.102Z,5.00
2018-03-22T00:34:09.619Z,5.00
2018-03-22T00:36:37.538Z,5.10
2018-03-22T00:39:05.097Z,5.10
2018-03-22T00:41:32.703Z,5.10
2018-03-22T00:44:00.224Z,5.10
2018-03-22T00:46:28.555Z,5.10
2018-03-22T00:48:56.533Z,5.10
2018-03-22T00:51:24.491Z,5.00
2018-03-22T00:53:51.997Z,5.00
2018-03-22T00:56:19.768Z,5.00
2018-03-22T00:58:48.033Z,5.00
2018-03-22T01:01:15.586Z,5.00
2018-03-22T01:03:43.124Z,5.00
2018-03-22T01:06:10.897Z,5.00
2018-03-22T01:08:38.930Z,5.00
2018-03-22T01:11:07.075Z,5.00
2018-03-22T01:13:35.309Z,5.00
2018-03-22T01:16:04.230Z,5.00
2018-03-22T01:18:31.716Z,5.00
2018-03-22T01:21:00.039Z,5.10
2018-03-22T01:23:27.498Z,5.00
2018-03-22T01:25:55.130Z,5.10
2018-03-22T01:28:22.632Z,5.00
2018-03-22T01:30:50.307Z,5.00
2018-03-22T01:33:18.569Z,4.80
2018-03-22T01:35:46.518Z,4.80
2018-03-22T01:38:14.045Z,4.80
2018-03-22T01:40:41.530Z,4.80
2018-03-22T01:43:09.038Z,4.80
2018-03-22T01:45:37.291Z,4.70
2018-03-22T01:48:05.287Z,4.70
2018-03-22T01:50:33.568Z,4.70
2018-03-22T01:53:13.601Z,4.70
2018-03-22T01:55:41.373Z,4.70
2018-03-22T01:58:09.568Z,4.70
2018-03-22T02:00:37.071Z,4.70
2018-03-22T02:03:04.691Z,4.70
2018-03-22T02:05:32.622Z,4.70
2018-03-22T02:08:01.217Z,4.80
2018-03-22T02:10:30.030Z,4.80
2018-03-22T02:12:57.853Z,4.80
2018-03-22T02:15:25.347Z,4.90
2018-03-22T02:17:52.861Z,4.90
2018-03-22T02:20:20.374Z,4.90
2018-03-22T02:22:47.895Z,4.90
2018-03-22T02:25:15.415Z,4.90
2018-03-22T02:27:43.820Z,4.90
2018-03-22T02:30:11.430Z,4.90
2018-03-22T02:32:38.914Z,4.90
2018-03-22T02:35:07.805Z,4.90
2018-03-22T02:37:35.326Z,5.00
2018-03-22T02:40:02.910Z,5.00
2018-03-22T02:42:30.454Z,5.00
2018-03-22T02:44:58.145Z,5.00
2018-03-22T02:47:25.658Z,5.00
2018-03-22T02:49:53.470Z,5.00
2018-03-22T02:52:21.379Z,5.00
2018-03-22T02:54:49.972Z,5.00
2018-03-22T02:57:17.640Z,5.00
2018-03-22T02:59:45.106Z,5.00
2018-03-22T03:02:12.696Z,5.00
2018-03-22T03:04:40.598Z,5.00
2018-03-22T03:07:08.131Z,5.00
2018-03-22T03:09:36.335Z,5.10
2018-03-22T03:12:04.358Z,5.10
2018-03-22T03:14:32.398Z,5.10
2018-03-22T03:16:59.914Z,5.10
2018-03-22T03:19:28.334Z,5.10
2018-03-22T03:21:55.926Z,5.00
2018-03-22T03:24:23.580Z,5.00
2018-03-22T03:26:51.060Z,5.00
2018-03-22T03:29:18.764Z,5.10
2018-03-22T03:31:46.234Z,5.00
2018-03-22T03:34:13.847Z,5.00
2018-03-22T03:36:41.712Z,5.00
2018-03-22T03:39:09.427Z,5.00
2018-03-22T03:41:36.941Z,5.00
2018-03-22T03:44:05.510Z,5.00
2018-03-22T03:46:33.839Z,5.00
2018-03-22T03:49:01.992Z,5.00
2018-03-22T03:51:30.396Z,4.90
2018-03-22T03:53:58.298Z,4.80
2018-03-22T03:56:26.088Z,4.80
2018-03-22T03:58:53.731Z,4.80
2018-03-22T04:01:21.222Z,4.80
2018-03-22T04:03:48.701Z,4.80
2018-03-22T04:06:16.494Z,4.80
2018-03-22T04:08:44.317Z,4.80
2018-03-22T04:11:12.086Z,4.80
2018-03-22T04:13:39.537Z,4.70
2018-03-22T04:16:07.892Z,4.70
2018-03-22T04:18:36.170Z,4.60
2018-03-22T04:21:04.583Z,4.60
2018-03-22T04:23:32.100Z,4.60
2018-03-22T04:25:59.631Z,4.60
2018-03-22T04:28:27.284Z,4.50
2018-03-22T04:30:54.805Z,4.50
2018-03-22T04:33:22.823Z,4.50
2018-03-22T04:35:50.806Z,4.50
2018-03-22T04:38:19.128Z,4.40
2018-03-22T04:40:47.414Z,4.40
2018-03-22T04:43:14.834Z,4.40
2018-03-22T04:45:43.306Z,4.40
2018-03-22T04:48:10.941Z,4.40
2018-03-22T04:50:38.561Z,4.40
2018-03-22T04:53:06.414Z,4.30
2018-03-22T04:55:34.707Z,4.30
2018-03-22T04:58:02.251Z,4.30
2018-03-22T05:00:29.823Z,4.30
2018-03-22T05:02:57.358Z,4.30
2018-03-22T05:05:25.184Z,4.40
2018-03-22T05:07:52.715Z,4.40
2018-03-22T05:10:20.962Z,4.40
2018-03-22T05:12:48.436Z,4.40
2018-03-22T05:15:15.896Z,4.50
2018-03-22T05:17:43.366Z,4.40
2018-03-22T05:20:10.810Z,4.40
2018-03-22T05:22:38.866Z,4.40
2018-03-22T05:25:07.198Z,4.40
2018-03-22T05:27:34.644Z,4.40
2018-03-22T05:30:02.727Z,4.40
2018-03-22T05:32:30.245Z,4.40
2018-03-22T05:34:58.257Z,4.40
2018-03-22T05:37:25.705Z,4.40
2018-03-22T05:39:53.533Z,4.30
2018-03-22T05:42:21.752Z,4.20
2018-03-22T05:44:50.035Z,4.20
2018-03-22T05:47:18.445Z,4.20
2018-03-22T05:49:46.053Z,4.20
2018-03-22T05:52:13.540Z,4.10
2018-03-22T05:54:41.726Z,4.20
2018-03-22T05:57:09.228Z,4.20
2018-03-22T05:59:36.709Z,4.10
2018-03-22T06:02:04.525Z,4.10
2018-03-22T06:04:32.329Z,4.10
2018-03-22T06:06:59.924Z,4.00
2018-03-22T06:09:28.384Z,4.10
2018-03-22T06:11:56.196Z,4.10
2018-03-22T06:14:23.673Z,4.10
2018-03-22T06:16:51.134Z,4.10
2018-03-22T06:19:18.601Z,4.20
2018-03-22T06:21:46.412Z,4.20
2018-03-22T06:24:13.971Z,4.20
2018-03-22T06:26:41.413Z,4.20
2018-03-22T06:29:09.648Z,4.10
2018-03-22T06:31:37.182Z,4.10
2018-03-22T06:34:04.682Z,4.20
2018-03-22T06:36:32.533Z,4.10
2018-03-22T06:39:00.062Z,4.10
2018-03-22T06:41:27.662Z,4.10
2018-03-22T06:43:55.110Z,4.00
2018-03-22T06:46:24.951Z,4.00
2018-03-22T06:48:52.436Z,4.00
2018-03-22T06:51:19.897Z,4.00
2018-03-22T06:53:48.534Z,4.10
2018-03-22T06:56:18.046Z,4.00
2018-03-22T06:58:46.228Z,4.10
2018-03-22T07:01:14.490Z,4.00
2018-03-22T07:03:41.961Z,4.00
2018-03-22T07:06:10.749Z,4.00
2018-03-22T07:08:39.149Z,4.00
2018-03-22T07:11:07.075Z,4.00
2018-03-22T07:13:34.549Z,4.10
2018-03-22T07:16:02.819Z,4.10
2018-03-22T07:18:31.107Z,4.10
2018-03-22T07:20:59.054Z,4.10
2018-03-22T07:23:26.541Z,4.10
2018-03-22T07:25:54.286Z,4.00
2018-03-22T07:28:21.723Z,4.00
2018-03-22T07:30:49.209Z,4.00
2018-03-22T07:33:16.687Z,4.00
2018-03-22T07:35:44.410Z,4.00
2018-03-22T07:38:12.049Z,4.00
2018-03-22T07:40:39.717Z,4.00
2018-03-22T07:43:12.820Z,4.00
2018-03-22T07:45:40.472Z,4.00
2018-03-22T07:48:07.960Z,4.00
2018-03-22T07:50:36.340Z,3.90
2018-03-22T07:53:04.552Z,3.90
2018-03-22T07:55:32.593Z,3.90
2018-03-22T07:58:00.574Z,3.90
2018-03-22T08:00:28.065Z,3.90
2018-03-22T08:03:00.532Z,4.00
2018-03-22T08:05:28.324Z,4.00
2018-03-22T08:07:55.799Z,4.00
2018-03-22T08:10:24.821Z,4.10
2018-03-22T08:12:52.706Z,4.10
2018-03-22T08:15:20.169Z,4.10
2018-03-22T08:17:47.662Z,4.10
2018-03-22T08:20:15.896Z,4.10
2018-03-22T08:22:43.348Z,4.10
2018-03-22T08:25:11.275Z,4.10
2018-03-22T08:27:38.866Z,4.20
2018-03-22T08:30:06.535Z,4.20
2018-03-22T08:32:34.041Z,4.20
2018-03-22T08:35:01.896Z,4.20
2018-03-22T08:37:29.333Z,4.30
2018-03-22T08:39:56.859Z,4.30
2018-03-22T08:42:24.960Z,4.30
2018-03-22T08:44:53.341Z,4.30
2018-03-22T08:47:20.815Z,4.30
2018-03-22T08:49:48.316Z,4.30
2018-03-22T08:52:15.785Z,4.30
2018-03-22T08:54:44.555Z,4.30
2018-03-22T08:57:12.647Z,4.30
2018-03-22T08:59:40.665Z,4.30
2018-03-22T09:02:08.128Z,4.40
2018-03-22T09:04:35.994Z,4.40
2018-03-22T09:07:04.219Z,4.40
2018-03-22T09:09:31.685Z,4.40
2018-03-22T09:11:59.600Z,4.40
2018-03-22T09:14:27.060Z,4.50
2018-03-22T09:16:55.280Z,4.50
2018-03-22T09:19:23.665Z,4.50
2018-03-22T09:21:51.215Z,4.50
2018-03-22T09:24:18.694Z,4.60
2018-03-22T09:26:52.883Z,4.60
2018-03-22T09:29:20.346Z,4.60
2018-03-22T09:31:47.941Z,4.60
2018-03-22T09:34:16.546Z,4.70
2018-03-22T09:36:45.044Z,4.70
2018-03-22T09:39:12.488Z,4.70
2018-03-22T09:41:40.173Z,4.80
2018-03-22T09:44:07.723Z,4.80
2018-03-22T09:46:35.243Z,4.90
2018-03-22T09:49:02.689Z,4.90
2018-03-22T09:51:33.579Z,4.90
2018-03-22T09:54:01.600Z,5.00
2018-03-22T09:56:29.880Z,5.00
2018-03-22T09:58:58.705Z,5.10
2018-03-22T10:01:26.204Z,5.10
2018-03-22T10:03:53.673Z,5.10
2018-03-22T10:06:21.656Z,5.20
2018-03-22T10:08:49.109Z,5.20
2018-03-22T10:11:18.512Z,5.30
2018-03-22T10:13:47.552Z,5.30
2018-03-22T10:16:15.152Z,5.30
2018-03-22T10:18:42.621Z,5.40
2018-03-22T10:21:10.877Z,5.40
2018-03-22T10:23:38.986Z,5.40
2018-03-22T10:26:07.236Z,5.50
2018-03-22T10:28:34.784Z,5.50
2018-03-22T10:31:02.242Z,5.60
2018-03-22T10:33:29.964Z,5.60
2018-03-22T10:35:57.718Z,5.70
2018-03-22T10:38:25.177Z,5.70
2018-03-22T10:40:53.074Z,5.80
2018-03-22T10:43:20.522Z,5.80
2018-03-22T10:45:47.967Z,5.90
2018-03-22T10:48:15.859Z,5.90
2018-03-22T10:50:43.303Z,5.90
2018-03-22T10:53:10.805Z,5.90
2018-03-22T10:55:38.636Z,5.90
2018-03-22T10:58:06.348Z,5.90
2018-03-22T11:00:37.745Z,6.00
2018-03-22T11:03:11.047Z,6.00
2018-03-22T11:05:39.009Z,6.00
2018-03-22T11:08:06.475Z,6.10
2018-03-22T11:10:35.221Z,6.20
2018-03-22T11:13:02.721Z,6.20
2018-03-22T11:15:30.166Z,6.30
2018-03-22T11:17:57.658Z,6.40
2018-03-22T11:20:25.185Z,6.40
2018-03-22T11:22:52.660Z,6.60
2018-03-22T11:25:20.105Z,6.70
2018-03-22T11:27:47.768Z,6.80
2018-03-22T11:30:15.222Z,6.90
2018-03-22T11:32:42.740Z,6.90
2018-03-22T11:35:10.447Z,7.10
2018-03-22T11:37:37.962Z,7.20
2018-03-22T11:40:05.441Z,7.20
2018-03-22T11:42:32.921Z,7.30
2018-03-22T11:45:00.371Z,7.20
2018-03-22T11:47:28.754Z,7.20
2018-03-22T11:49:56.229Z,7.20
2018-03-22T11:52:24.531Z,7.20
2018-03-22T11:54:52.450Z,7.20
2018-03-22T11:57:19.924Z,7.20
2018-03-22T11:59:47.424Z,7.20
2018-03-22T12:02:14.970Z,7.20
2018-03-22T12:04:42.855Z,7.20
2018-03-22T12:07:10.332Z,7.30
2018-03-22T12:09:37.811Z,7.30
2018-03-22T12:12:05.823Z,7.30
2018-03-22T12:14:33.316Z,7.30
2018-03-22T12:17:00.947Z,7.30
2018-03-22T12:19:28.387Z,7.20
2018-03-22T12:21:55.878Z,7.20
2018-03-22T12:24:23.560Z,7.30
2018-03-22T12:26:51.062Z,7.20
2018-03-22T12:29:18.511Z,7.30
2018-03-22T12:31:46.915Z,7.30
2018-03-22T12:34:14.370Z,7.30
2018-03-22T12:36:42.342Z,7.30
2018-03-22T12:39:09.786Z,7.40
2018-03-22T12:41:37.236Z,7.50
2018-03-22T12:44:05.082Z,7.70
2018-03-22T12:46:33.615Z,7.90
2018-03-22T12:49:01.153Z,7.80
2018-03-22T12:51:28.879Z,7.90
2018-03-22T12:53:56.770Z,8.00
2018-03-22T12:56:24.689Z,8.00
2018-03-22T12:58:52.161Z,8.10
2018-03-22T13:01:20.380Z,8.20
2018-03-22T13:03:47.844Z,8.20
2018-03-22T13:06:15.849Z,8.20
2018-03-22T13:08:43.343Z,8.20
2018-03-22T13:11:11.951Z,8.30
2018-03-22T13:13:39.453Z,8.30
2018-03-22T13:16:07.405Z,8.30
2018-03-22T13:18:34.852Z,8.30
2018-03-22T13:21:02.336Z,8.30
2018-03-22T13:23:29.780Z,8.30
2018-03-22T13:25:57.312Z,8.40
2018-03-22T13:28:24.767Z,8.40
2018-03-22T13:30:52.392Z,8.40
2018-03-22T13:33:20.895Z,8.40
2018-03-22T13:35:48.712Z,8.40
2018-03-22T13:38:16.177Z,8.40
2018-03-22T13:40:44.113Z,8.40
2018-03-22T13:43:11.567Z,8.40
2018-03-22T13:45:39.006Z,8.30
2018-03-22T13:48:06.505Z,8.30
2018-03-22T13:50:33.976Z,8.30
2018-03-22T13:53:02.330Z,8.30
2018-03-22T13:55:30.195Z,8.30
2018-03-22T13:57:57.678Z,8.40
2018-03-22T14:00:25.207Z,8.30
2018-03-22T14:02:52.597Z,8.40
2018-03-22T14:05:21.276Z,8.40
2018-03-22T14:07:48.888Z,8.30
2018-03-22T14:10:16.846Z,8.30
2018-03-22T14:12:44.337Z,8.30
2018-03-22T14:15:13.738Z,8.30
2018-03-22T14:17:41.190Z,8.30
2018-03-22T14:20:08.742Z,8.30
2018-03-22T14:22:36.197Z,8.30
2018-03-22T14:25:03.874Z,8.40
2018-03-22T14:27:31.320Z,8.30
2018-03-22T14:29:58.787Z,8.40
2018-03-22T14:32:26.818Z,8.40
2018-03-22T14:34:54.848Z,8.40
2018-03-22T14:37:22.819Z,8.40
2018-03-22T14:39:50.747Z,8.40
2018-03-22T14:42:18.202Z,8.40
2018-03-22T14:44:45.648Z,8.50
2018-03-22T14:47:13.835Z,8.40
2018-03-22T14:49:42.819Z,8.40
2018-03-22T14:52:10.404Z,8.40
2018-03-22T14:54:37.846Z,8.40
2018-03-22T14:57:05.644Z,8.40
2018-03-22T14:59:33.843Z,8.40
2018-03-22T15:02:01.336Z,8.40
2018-03-22T15:04:29.015Z,8.40
2018-03-22T15:06:56.647Z,8.40
2018-03-22T15:09:24.848Z,8.40
2018-03-22T15:11:52.914Z,8.40
2018-03-22T15:14:20.372Z,8.30
2018-03-22T15:16:49.399Z,8.30
2018-03-22T15:19:16.870Z,8.30
2018-03-22T15:21:44.320Z,8.30
2018-03-22T15:24:12.556Z,8.40
2018-03-22T15:26:40.001Z,8.30
2018-03-22T15:29:07.484Z,8.40
2018-03-22T15:31:34.943Z,8.40
2018-03-22T15:34:02.719Z,8.50
2018-03-22T15:36:31.188Z,8.50
2018-03-22T15:38:58.680Z,8.50
2018-03-22T15:41:26.157Z,8.60
2018-03-22T15:43:53.613Z,8.60
2018-03-22T15:46:21.055Z,8.60
2018-03-22T15:48:48.578Z,8.60
2018-03-22T15:51:17.418Z,8.50
2018-03-22T15:53:45.062Z,8.50
2018-03-22T15:56:12.689Z,8.50
2018-03-22T15:58:40.921Z,8.50
2018-03-22T16:01:08.402Z,8.50
2018-03-22T16:03:35.981Z,8.60
2018-03-22T16:06:04.727Z,8.60
2018-03-22T16:08:32.178Z,8.60
2018-03-22T16:11:00.029Z,8.60
2018-03-22T16:13:27.514Z,8.60
2018-03-22T16:15:55.008Z,8.70
2018-03-22T16:18:23.204Z,8.70
2018-03-22T16:20:50.824Z,8.70
2018-03-22T16:23:18.339Z,8.80
2018-03-22T16:25:47.308Z,8.80
2018-03-22T16:28:14.752Z,8.80
2018-03-22T16:30:42.972Z,8.80
2018-03-22T16:33:10.906Z,8.80
2018-03-22T16:35:38.785Z,8.80
2018-03-22T16:38:06.261Z,8.80
2018-03-22T16:40:33.727Z,8.80
2018-03-22T16:43:01.207Z,8.80
2018-03-22T16:45:28.706Z,8.80
2018-03-22T16:47:56.232Z,8.80
2018-03-22T16:50:24.449Z,8.70
2018-03-22T16:52:51.991Z,8.70
2018-03-22T16:55:20.529Z,8.60
2018-03-22T16:57:48.147Z,8.60
2018-03-22T17:00:15.622Z,8.60
2018-03-22T17:02:43.097Z,8.60
2018-03-22T17:05:10.777Z,8.50
2018-03-22T17:07:38.240Z,8.50
2018-03-22T17:10:07.097Z,8.50
2018-03-22T17:12:34.545Z,8.50
2018-03-22T17:15:02.105Z,8.50
2018-03-22T17:17:30.351Z,8.60
2018-03-22T17:19:57.808Z,8.60
2018-03-22T17:22:25.341Z,8.60
2018-03-22T17:24:52.745Z,8.60
2018-03-22T17:27:20.537Z,8.60
2018-03-22T17:29:48.366Z,8.60
2018-03-22T17:32:16.609Z,8.60
2018-03-22T17:34:44.836Z,8.60
2018-03-22T17:37:12.754Z,8.60
2018-03-22T17:39:41.015Z,8.50
2018-03-22T17:42:09.231Z,8.50
2018-03-22T17:44:36.713Z,8.60
2018-03-22T17:47:04.160Z,8.60
2018-03-22T17:49:31.615Z,8.60
2018-03-22T17:51:59.061Z,8.60
2018-03-22T17:54:26.532Z,8.60
2018-03-22T17:56:54.379Z,8.60
2018-03-22T17:59:21.807Z,8.60
2018-03-22T18:01:50.032Z,8.50
2018-03-22T18:04:18.102Z,8.50
2018-03-22T18:06:46.066Z,8.50
2018-03-22T18:09:13.597Z,8.40
2018-03-22T18:11:41.397Z,8.40
2018-03-22T18:14:09.828Z,8.40
2018-03-22T18:16:37.289Z,8.40
2018-03-22T18:19:04.756Z,8.40
2018-03-22T18:21:32.542Z,8.30
2018-03-22T18:24:00.112Z,8.40
2018-03-22T18:26:28.179Z,8.40
2018-03-22T18:28:55.658Z,8.30
2018-03-22T18:31:23.108Z,8.30
2018-03-22T18:33:50.581Z,8.30
2018-03-22T18:36:18.593Z,8.30
2018-03-22T18:38:46.067Z,8.30
2018-03-22T18:41:13.791Z,8.30
2018-03-22T18:43:42.208Z,8.30
2018-03-22T18:46:09.658Z,8.30
2018-03-22T18:48:37.212Z,8.30
2018-03-22T18:51:04.663Z,8.40
2018-03-22T18:53:32.222Z,8.40
2018-03-22T18:55:59.749Z,8.40
2018-03-22T18:58:28.314Z,8.40
2018-03-22T19:00:56.546Z,8.40
2018-03-22T19:03:24.013Z,8.40
2018-03-22T19:05:52.010Z,8.50
2018-03-22T19:08:19.481Z,8.50
2018-03-22T19:10:48.151Z,8.60
2018-03-22T19:13:16.036Z,8.50
2018-03-22T19:15:44.258Z,8.60
2018-03-22T19:18:11.814Z,8.60
2018-03-22T19:20:39.251Z,8.60
2018-03-22T19:23:06.714Z,8.60
2018-03-22T19:25:34.461Z,8.50
2018-03-22T19:28:02.490Z,8.50
2018-03-22T19:30:30.006Z,8.40
2018-03-22T19:32:57.514Z,8.40
2018-03-22T19:35:25.449Z,8.40
2018-03-22T19:37:52.895Z,8.40
2018-03-22T19:40:20.379Z,8.40
2018-03-22T19:42:47.996Z,8.30
2018-03-22T19:45:15.471Z,8.30
2018-03-22T19:47:42.914Z,8.30
2018-03-22T19:50:10.486Z,8.30
2018-03-22T19:52:38.150Z,8.30
2018-03-22T19:55:05.626Z,8.20
2018-03-22T19:57:33.421Z,8.20
2018-03-22T20:00:01.648Z,8.20
2018-03-22T20:02:29.160Z,8.20
2018-03-22T20:04:56.957Z,8.30
2018-03-22T20:07:25.757Z,8.30
2018-03-22T20:09:53.226Z,8.30
2018-03-22T20:12:21.101Z,8.30
2018-03-22T20:14:52.426Z,8.30
2018-03-22T20:17:20.066Z,8.30
2018-03-22T20:19:47.710Z,8.20
2018-03-22T20:22:15.744Z,8.20
2018-03-22T20:24:43.190Z,8.30
2018-03-22T20:27:10.960Z,8.30
2018-03-22T20:29:39.518Z,8.30
2018-03-22T20:32:07.200Z,8.30
2018-03-22T20:34:35.391Z,8.30
2018-03-22T20:37:04.145Z,8.30
2018-03-22T20:39:31.624Z,8.30
2018-03-22T20:41:59.317Z,8.30
2018-03-22T20:44:26.790Z,8.20
2018-03-22T20:46:55.033Z,8.30
2018-03-22T20:49:22.482Z,8.20
2018-03-22T20:51:49.966Z,8.20
2018-03-22T20:54:18.646Z,8.30
2018-03-22T20:56:46.879Z,8.30
2018-03-22T20:59:14.601Z,8.30
2018-03-22T21:01:43.262Z,8.40
2018-03-22T21:04:11.128Z,8.30
2018-03-22T21:06:38.900Z,8.30
2018-03-22T21:09:07.207Z,8.30
2018-03-22T21:11:35.158Z,8.30
2018-03-22T21:14:03.788Z,8.30
2018-03-22T21:16:31.232Z,8.30
2018-03-22T21:18:59.190Z,8.20
2018-03-22T21:21:27.405Z,8.20
2018-03-22T21:23:56.420Z,8.10
2018-03-22T21:26:25.100Z,8.10
2018-03-22T21:28:52.609Z,8.10
2018-03-22T21:31:20.068Z,8.10
2018-03-22T21:33:47.829Z,8.10
2018-03-22T21:36:15.830Z,8.00
2018-03-22T21:38:43.278Z,8.10
2018-03-22T21:41:10.774Z,8.00
2018-03-22T21:43:50.971Z,8.00
2018-03-22T21:46:24.865Z,7.90
2018-03-22T21:48:52.400Z,8.00
2018-03-22T21:51:20.641Z,8.00
2018-03-22T21:53:48.139Z,8.00
2018-03-22T21:56:15.614Z,8.00
2018-03-22T21:58:43.353Z,7.90
2018-03-22T22:01:11.459Z,7.90
2018-03-22T22:03:39.300Z,7.90
2018-03-22T22:06:07.150Z,7.90
2018-03-22T22:08:35.689Z,7.80
2018-03-22T22:11:03.526Z,7.80
2018-03-22T22:13:30.965Z,7.80
2018-03-22T22:15:58.814Z,7.80
2018-03-22T22:18:26.303Z,7.80
2018-03-22T22:20:53.801Z,7.70
2018-03-22T22:23:21.305Z,7.70
2018-03-22T22:25:48.872Z,7.70
2018-03-22T22:28:16.651Z,7.70
2018-03-22T22:30:44.140Z,7.70
2018-03-22T22:33:11.582Z,7.70
2018-03-22T22:35:39.506Z,7.70
2018-03-22T22:38:07.737Z,7.70
2018-03-22T22:40:35.181Z,7.60
2018-03-22T22:43:02.745Z,7.70
2018-03-22T22:45:30.247Z,7.60
2018-03-22T22:47:57.744Z,7.60
2018-03-22T22:50:25.568Z,7.60
2018-03-22T22:52:53.809Z,7.60
2018-03-22T22:55:21.602Z,7.60
2018-03-22T22:57:49.414Z,7.60
2018-03-22T23:00:16.870Z,7.60
2018-03-22T23:02:45.440Z,7.60
2018-03-22T23:05:13.268Z,7.60
2018-03-22T23:07:40.733Z,7.80
2018-03-22T23:10:09.494Z,7.70
2018-03-22T23:12:36.951Z,7.60
2018-03-22T23:15:04.745Z,7.70
2018-03-22T23:17:33.012Z,7.80
2018-03-22T23:20:01.245Z,7.80
2018-03-22T23:22:28.699Z,7.80
2018-03-22T23:24:56.153Z,7.90
2018-03-22T23:27:23.984Z,7.90
2018-03-22T23:29:51.436Z,7.90
2018-03-22T23:32:19.732Z,7.80
2018-03-22T23:34:47.803Z,7.80
2018-03-22T23:37:15.465Z,7.90
2018-03-22T23:39:42.896Z,7.90
2018-03-22T23:42:11.143Z,7.80
2018-03-22T23:44:38.580Z,7.80
2018-03-22T23:47:06.468Z,7.90
2018-03-22T23:49:33.910Z,7.90
2018-03-22T23:52:01.362Z,7.90
2018-03-22T23:54:28.811Z,7.90
2018-03-22T23:56:56.291Z,7.90
2018-03-22T23:59:24.258Z,7.90
